sensor_id;sensor_type;location;lat;lon;timestamp;temperature;humidity
15564;DHT22;7883;52.554;13.364;2023-02-18T00:00:34;7.90;99.90
15564;DHT22;7883;52.554;13.364;2023-02-18T00:03:01;8.00;99.90
15564;DHT22;7883;52.554;13.364;2023-02-18T00:05:28;7.90;99.90
15564;DHT22;7883;52.554;13.364;2023-02-18T00:07:55;7.90;99.90
15564;DHT22;7883;52.554;13.364;2023-02-18T00:10:22;7.90;99.90
15564;DHT22;7883;52.554;13.364;2023-02-18T00:12:49;7.80;99.90
15564;DHT22;7883;52.554;13.364;2023-02-18T00:15:16;7.90;99.90
15564;DHT22;7883;52.554;13.364;2023-02-18T00:17:45;7.90;99.90
15564;DHT22;7883;52.554;13.364;2023-02-18T00:20:12;7.90;99.90
15564;DHT22;7883;52.554;13.364;2023-02-18T00:22:39;7.80;99.90
15564;DHT22;7883;52.554;13.364;2023-02-18T00:25:06;7.90;99.90
15564;DHT22;7883;52.554;13.364;2023-02-18T00:27:33;7.80;99.90
15564;DHT22;7883;52.554;13.364;2023-02-18T00:30:00;7.80;99.90
15564;DHT22;7883;52.554;13.364;2023-02-18T00:32:28;7.80;99.90
15564;DHT22;7883;52.554;13.364;2023-02-18T00:34:57;7.80;99.90
15564;DHT22;7883;52.554;13.364;2023-02-18T00:37:23;7.70;99.90
15564;DHT22;7883;52.554;13.364;2023-02-18T00:39:50;7.70;99.90
15564;DHT22;7883;52.554;13.364;2023-02-18T00:42:17;7.70;99.90
15564;DHT22;7883;52.554;13.364;2023-02-18T00:44:44;7.70;99.90
15564;DHT22;7883;52.554;13.364;2023-02-18T00:47:11;7.70;99.90
15564;DHT22;7883;52.554;13.364;2023-02-18T00:49:38;7.60;99.90
15564;DHT22;7883;52.554;13.364;2023-02-18T00:52:06;7.60;99.90
15564;DHT22;7883;52.554;13.364;2023-02-18T00:54:33;7.60;99.90
15564;DHT22;7883;52.554;13.364;2023-02-18T00:57:00;7.60;99.90
15564;DHT22;7883;52.554;13.364;2023-02-18T00:59:27;7.50;99.90
15564;DHT22;7883;52.554;13.364;2023-02-18T01:01:54;7.50;99.90
15564;DHT22;7883;52.554;13.364;2023-02-18T01:04:21;7.50;99.90
15564;DHT22;7883;52.554;13.364;2023-02-18T01:06:48;7.50;99.90
15564;DHT22;7883;52.554;13.364;2023-02-18T01:09:16;7.60;99.90
15564;DHT22;7883;52.554;13.364;2023-02-18T01:11:44;7.50;99.90
15564;DHT22;7883;52.554;13.364;2023-02-18T01:14:10;7.50;99.90
15564;DHT22;7883;52.554;13.364;2023-02-18T01:16:37;7.50;99.90
15564;DHT22;7883;52.554;13.364;2023-02-18T01:19:04;7.50;99.90
15564;DHT22;7883;52.554;13.364;2023-02-18T01:21:31;7.40;99.90
15564;DHT22;7883;52.554;13.364;2023-02-18T01:23:58;7.40;99.90
15564;DHT22;7883;52.554;13.364;2023-02-18T01:26:26;7.40;99.90
15564;DHT22;7883;52.554;13.364;2023-02-18T01:28:53;7.30;99.90
15564;DHT22;7883;52.554;13.364;2023-02-18T01:31:20;7.30;99.90
15564;DHT22;7883;52.554;13.364;2023-02-18T01:33:47;7.40;99.90
15564;DHT22;7883;52.554;13.364;2023-02-18T01:36:16;7.30;99.90
15564;DHT22;7883;52.554;13.364;2023-02-18T01:38:43;7.30;99.90
15564;DHT22;7883;52.554;13.364;2023-02-18T01:41:10;7.30;99.90
15564;DHT22;7883;52.554;13.364;2023-02-18T01:43:38;7.30;99.90
15564;DHT22;7883;52.554;13.364;2023-02-18T01:46:12;7.30;99.90
15564;DHT22;7883;52.554;13.364;2023-02-18T01:48:42;7.30;99.90
15564;DHT22;7883;52.554;13.364;2023-02-18T01:51:13;7.30;99.90
15564;DHT22;7883;52.554;13.364;2023-02-18T01:53:49;7.30;99.90
15564;DHT22;7883;52.554;13.364;2023-02-18T01:56:22;7.20;99.90
15564;DHT22;7883;52.554;13.364;2023-02-18T01:58:53;7.30;99.90
15564;DHT22;7883;52.554;13.364;2023-02-18T02:01:20;7.20;99.90
15564;DHT22;7883;52.554;13.364;2023-02-18T02:03:47;7.30;99.90
15564;DHT22;7883;52.554;13.364;2023-02-18T02:06:16;7.30;99.90
15564;DHT22;7883;52.554;13.364;2023-02-18T02:08:44;7.20;99.90
15564;DHT22;7883;52.554;13.364;2023-02-18T02:11:23;7.20;99.90
15564;DHT22;7883;52.554;13.364;2023-02-18T02:14:28;7.20;99.90
15564;DHT22;7883;52.554;13.364;2023-02-18T02:17:02;7.20;99.90
15564;DHT22;7883;52.554;13.364;2023-02-18T02:19:57;7.20;99.90
15564;DHT22;7883;52.554;13.364;2023-02-18T02:23:01;7.20;99.90
15564;DHT22;7883;52.554;13.364;2023-02-18T02:32:26;7.10;99.90
15564;DHT22;7883;52.554;13.364;2023-02-18T02:35:00;7.10;99.90
15564;DHT22;7883;52.554;13.364;2023-02-18T02:37:34;7.10;99.90
15564;DHT22;7883;52.554;13.364;2023-02-18T02:40:11;7.20;99.90
15564;DHT22;7883;52.554;13.364;2023-02-18T02:42:48;7.20;99.90
15564;DHT22;7883;52.554;13.364;2023-02-18T02:45:31;7.10;99.90
15564;DHT22;7883;52.554;13.364;2023-02-18T02:48:08;7.10;99.90
15564;DHT22;7883;52.554;13.364;2023-02-18T02:50:43;7.10;99.90
15564;DHT22;7883;52.554;13.364;2023-02-18T02:53:15;7.10;99.90
15564;DHT22;7883;52.554;13.364;2023-02-18T02:55:45;7.20;99.90
15564;DHT22;7883;52.554;13.364;2023-02-18T02:58:14;7.10;99.90
15564;DHT22;7883;52.554;13.364;2023-02-18T03:00:54;7.10;99.90
15564;DHT22;7883;52.554;13.364;2023-02-18T03:03:38;7.00;99.90
15564;DHT22;7883;52.554;13.364;2023-02-18T03:09:09;7.00;99.90
15564;DHT22;7883;52.554;13.364;2023-02-18T03:11:51;7.00;99.90
15564;DHT22;7883;52.554;13.364;2023-02-18T03:14:27;7.00;99.90
15564;DHT22;7883;52.554;13.364;2023-02-18T03:16:58;7.00;99.90
15564;DHT22;7883;52.554;13.364;2023-02-18T03:19:30;7.00;99.90
15564;DHT22;7883;52.554;13.364;2023-02-18T03:22:04;7.00;99.90
15564;DHT22;7883;52.554;13.364;2023-02-18T03:24:34;7.00;99.90
15564;DHT22;7883;52.554;13.364;2023-02-18T03:27:06;7.00;99.90
15564;DHT22;7883;52.554;13.364;2023-02-18T03:29:35;6.90;99.90
15564;DHT22;7883;52.554;13.364;2023-02-18T03:32:06;6.90;99.90
15564;DHT22;7883;52.554;13.364;2023-02-18T03:34:37;6.90;99.90
15564;DHT22;7883;52.554;13.364;2023-02-18T03:37:09;7.00;99.90
15564;DHT22;7883;52.554;13.364;2023-02-18T03:39:38;7.00;99.90
15564;DHT22;7883;52.554;13.364;2023-02-18T03:42:06;7.00;99.90
15564;DHT22;7883;52.554;13.364;2023-02-18T03:44:33;7.00;99.90
15564;DHT22;7883;52.554;13.364;2023-02-18T03:47:00;7.00;99.90
15564;DHT22;7883;52.554;13.364;2023-02-18T03:49:27;7.00;99.90
15564;DHT22;7883;52.554;13.364;2023-02-18T03:51:54;7.00;99.90
15564;DHT22;7883;52.554;13.364;2023-02-18T03:54:24;7.00;99.90
15564;DHT22;7883;52.554;13.364;2023-02-18T03:56:50;7.00;99.90
15564;DHT22;7883;52.554;13.364;2023-02-18T03:59:17;7.00;99.90
15564;DHT22;7883;52.554;13.364;2023-02-18T04:01:44;7.00;99.90
15564;DHT22;7883;52.554;13.364;2023-02-18T04:04:11;7.00;99.90
15564;DHT22;7883;52.554;13.364;2023-02-18T04:06:38;7.00;99.90
15564;DHT22;7883;52.554;13.364;2023-02-18T04:09:05;7.00;99.90
15564;DHT22;7883;52.554;13.364;2023-02-18T04:11:35;7.00;99.90
15564;DHT22;7883;52.554;13.364;2023-02-18T04:14:02;7.00;99.90
15564;DHT22;7883;52.554;13.364;2023-02-18T04:16:29;6.90;99.90
15564;DHT22;7883;52.554;13.364;2023-02-18T04:18:56;6.90;99.90
15564;DHT22;7883;52.554;13.364;2023-02-18T04:21:23;6.90;99.90
15564;DHT22;7883;52.554;13.364;2023-02-18T04:23:50;6.90;99.90
15564;DHT22;7883;52.554;13.364;2023-02-18T04:26:17;7.00;99.90
15564;DHT22;7883;52.554;13.364;2023-02-18T04:28:45;6.90;99.90
15564;DHT22;7883;52.554;13.364;2023-02-18T04:31:12;7.00;99.90
15564;DHT22;7883;52.554;13.364;2023-02-18T04:33:40;6.90;99.90
15564;DHT22;7883;52.554;13.364;2023-02-18T04:36:07;6.90;99.90
15564;DHT22;7883;52.554;13.364;2023-02-18T04:38:34;7.00;99.90
15564;DHT22;7883;52.554;13.364;2023-02-18T04:41:01;6.90;99.90
15564;DHT22;7883;52.554;13.364;2023-02-18T04:43:28;6.90;99.90
15564;DHT22;7883;52.554;13.364;2023-02-18T04:45:56;6.90;99.90
15564;DHT22;7883;52.554;13.364;2023-02-18T04:48:23;6.80;99.90
15564;DHT22;7883;52.554;13.364;2023-02-18T04:50:50;6.90;99.90
15564;DHT22;7883;52.554;13.364;2023-02-18T04:53:17;6.90;99.90
15564;DHT22;7883;52.554;13.364;2023-02-18T04:55:48;6.90;99.90
15564;DHT22;7883;52.554;13.364;2023-02-18T04:58:16;6.80;99.90
15564;DHT22;7883;52.554;13.364;2023-02-18T05:00:43;6.80;99.90
15564;DHT22;7883;52.554;13.364;2023-02-18T05:03:12;6.80;99.90
15564;DHT22;7883;52.554;13.364;2023-02-18T05:05:39;6.80;99.90
15564;DHT22;7883;52.554;13.364;2023-02-18T05:08:06;6.80;99.90
15564;DHT22;7883;52.554;13.364;2023-02-18T05:10:33;6.80;99.90
15564;DHT22;7883;52.554;13.364;2023-02-18T05:13:00;6.80;99.90
15564;DHT22;7883;52.554;13.364;2023-02-18T05:15:27;6.80;99.90
15564;DHT22;7883;52.554;13.364;2023-02-18T05:17:54;6.80;99.90
15564;DHT22;7883;52.554;13.364;2023-02-18T05:20:22;6.80;99.90
15564;DHT22;7883;52.554;13.364;2023-02-18T05:22:50;6.80;99.90
15564;DHT22;7883;52.554;13.364;2023-02-18T05:25:17;6.80;99.90
15564;DHT22;7883;52.554;13.364;2023-02-18T05:27:43;6.90;99.90
15564;DHT22;7883;52.554;13.364;2023-02-18T05:30:11;6.90;99.90
15564;DHT22;7883;52.554;13.364;2023-02-18T05:32:38;6.90;99.90
15564;DHT22;7883;52.554;13.364;2023-02-18T05:35:06;6.90;99.90
15564;DHT22;7883;52.554;13.364;2023-02-18T05:37:34;7.00;99.90
15564;DHT22;7883;52.554;13.364;2023-02-18T05:40:02;7.00;99.90
15564;DHT22;7883;52.554;13.364;2023-02-18T05:42:29;7.00;99.90
15564;DHT22;7883;52.554;13.364;2023-02-18T05:44:57;7.00;99.90
15564;DHT22;7883;52.554;13.364;2023-02-18T05:47:24;7.00;99.90
15564;DHT22;7883;52.554;13.364;2023-02-18T05:49:51;7.10;99.90
15564;DHT22;7883;52.554;13.364;2023-02-18T05:52:20;7.00;99.90
15564;DHT22;7883;52.554;13.364;2023-02-18T05:54:49;7.10;99.90
15564;DHT22;7883;52.554;13.364;2023-02-18T05:57:16;7.10;99.90
15564;DHT22;7883;52.554;13.364;2023-02-18T05:59:43;7.10;99.90
15564;DHT22;7883;52.554;13.364;2023-02-18T06:02:11;7.20;99.90
15564;DHT22;7883;52.554;13.364;2023-02-18T06:04:38;7.20;99.90
15564;DHT22;7883;52.554;13.364;2023-02-18T06:07:06;7.20;99.90
15564;DHT22;7883;52.554;13.364;2023-02-18T06:09:34;7.20;99.90
15564;DHT22;7883;52.554;13.364;2023-02-18T06:12:03;7.20;99.90
15564;DHT22;7883;52.554;13.364;2023-02-18T06:14:30;7.30;99.90
15564;DHT22;7883;52.554;13.364;2023-02-18T06:16:57;7.30;99.90
15564;DHT22;7883;52.554;13.364;2023-02-18T06:19:24;7.30;99.90
15564;DHT22;7883;52.554;13.364;2023-02-18T06:21:51;7.30;99.90
15564;DHT22;7883;52.554;13.364;2023-02-18T06:24:18;7.30;99.90
15564;DHT22;7883;52.554;13.364;2023-02-18T06:26:45;7.30;99.90
15564;DHT22;7883;52.554;13.364;2023-02-18T06:29:13;7.40;99.90
15564;DHT22;7883;52.554;13.364;2023-02-18T06:31:40;7.40;99.90
15564;DHT22;7883;52.554;13.364;2023-02-18T06:34:07;7.40;99.90
15564;DHT22;7883;52.554;13.364;2023-02-18T06:36:33;7.40;99.90
15564;DHT22;7883;52.554;13.364;2023-02-18T06:39:02;7.40;99.90
15564;DHT22;7883;52.554;13.364;2023-02-18T06:41:29;7.40;99.90
15564;DHT22;7883;52.554;13.364;2023-02-18T06:43:56;7.50;99.90
15564;DHT22;7883;52.554;13.364;2023-02-18T06:46:24;7.50;99.90
15564;DHT22;7883;52.554;13.364;2023-02-18T06:48:51;7.50;99.90
15564;DHT22;7883;52.554;13.364;2023-02-18T06:51:18;7.50;99.90
15564;DHT22;7883;52.554;13.364;2023-02-18T06:53:45;7.50;99.90
15564;DHT22;7883;52.554;13.364;2023-02-18T06:56:12;7.50;99.90
15564;DHT22;7883;52.554;13.364;2023-02-18T06:58:39;7.60;99.90
15564;DHT22;7883;52.554;13.364;2023-02-18T07:01:06;7.50;99.90
15564;DHT22;7883;52.554;13.364;2023-02-18T07:03:34;7.50;99.90
15564;DHT22;7883;52.554;13.364;2023-02-18T07:06:01;7.50;99.90
15564;DHT22;7883;52.554;13.364;2023-02-18T07:08:28;7.60;99.90
15564;DHT22;7883;52.554;13.364;2023-02-18T07:10:57;7.60;99.90
15564;DHT22;7883;52.554;13.364;2023-02-18T07:13:24;7.60;99.90
15564;DHT22;7883;52.554;13.364;2023-02-18T07:15:51;7.60;99.90
15564;DHT22;7883;52.554;13.364;2023-02-18T07:18:18;7.70;99.90
15564;DHT22;7883;52.554;13.364;2023-02-18T07:20:46;7.70;99.90
15564;DHT22;7883;52.554;13.364;2023-02-18T07:23:13;7.70;99.90
15564;DHT22;7883;52.554;13.364;2023-02-18T07:25:40;7.70;99.90
15564;DHT22;7883;52.554;13.364;2023-02-18T07:28:07;7.70;99.90
15564;DHT22;7883;52.554;13.364;2023-02-18T07:30:34;7.70;99.90
15564;DHT22;7883;52.554;13.364;2023-02-18T07:33:01;7.70;99.90
15564;DHT22;7883;52.554;13.364;2023-02-18T07:35:28;7.80;99.90
15564;DHT22;7883;52.554;13.364;2023-02-18T07:37:56;7.80;99.90
15564;DHT22;7883;52.554;13.364;2023-02-18T07:40:23;7.80;99.90
15564;DHT22;7883;52.554;13.364;2023-02-18T07:42:50;7.80;99.90
15564;DHT22;7883;52.554;13.364;2023-02-18T07:45:17;7.80;99.90
15564;DHT22;7883;52.554;13.364;2023-02-18T07:47:44;7.90;99.90
15564;DHT22;7883;52.554;13.364;2023-02-18T07:50:11;7.90;99.90
15564;DHT22;7883;52.554;13.364;2023-02-18T07:52:38;7.90;99.90
15564;DHT22;7883;52.554;13.364;2023-02-18T07:55:07;7.90;99.90
15564;DHT22;7883;52.554;13.364;2023-02-18T07:57:34;8.00;99.90
15564;DHT22;7883;52.554;13.364;2023-02-18T08:00:22;7.90;99.90
15564;DHT22;7883;52.554;13.364;2023-02-18T08:02:51;8.00;99.90
15564;DHT22;7883;52.554;13.364;2023-02-18T08:05:18;7.90;99.90
15564;DHT22;7883;52.554;13.364;2023-02-18T08:07:45;7.90;99.90
15564;DHT22;7883;52.554;13.364;2023-02-18T08:10:13;7.90;99.90
15564;DHT22;7883;52.554;13.364;2023-02-18T08:12:40;7.90;99.90
15564;DHT22;7883;52.554;13.364;2023-02-18T08:15:08;7.90;99.90
15564;DHT22;7883;52.554;13.364;2023-02-18T08:17:35;7.90;99.90
15564;DHT22;7883;52.554;13.364;2023-02-18T08:20:02;7.90;99.90
15564;DHT22;7883;52.554;13.364;2023-02-18T08:22:30;7.90;99.90
15564;DHT22;7883;52.554;13.364;2023-02-18T08:24:57;7.90;99.90
15564;DHT22;7883;52.554;13.364;2023-02-18T08:27:25;7.90;99.90
15564;DHT22;7883;52.554;13.364;2023-02-18T08:29:52;7.90;99.90
15564;DHT22;7883;52.554;13.364;2023-02-18T08:32:20;7.80;99.90
15564;DHT22;7883;52.554;13.364;2023-02-18T08:34:47;7.90;99.90
15564;DHT22;7883;52.554;13.364;2023-02-18T08:37:14;7.80;99.90
15564;DHT22;7883;52.554;13.364;2023-02-18T08:39:41;7.90;99.90
15564;DHT22;7883;52.554;13.364;2023-02-18T08:42:08;7.90;99.90
15564;DHT22;7883;52.554;13.364;2023-02-18T08:44:36;7.90;99.90
15564;DHT22;7883;52.554;13.364;2023-02-18T08:47:03;7.90;99.90
15564;DHT22;7883;52.554;13.364;2023-02-18T08:49:30;7.90;99.90
15564;DHT22;7883;52.554;13.364;2023-02-18T08:51:57;7.90;99.90
15564;DHT22;7883;52.554;13.364;2023-02-18T08:54:24;7.90;99.90
15564;DHT22;7883;52.554;13.364;2023-02-18T08:56:53;7.80;99.90
15564;DHT22;7883;52.554;13.364;2023-02-18T08:59:20;7.80;99.90
15564;DHT22;7883;52.554;13.364;2023-02-18T09:01:48;7.80;99.90
15564;DHT22;7883;52.554;13.364;2023-02-18T09:04:15;7.80;99.90
15564;DHT22;7883;52.554;13.364;2023-02-18T09:06:42;7.80;99.90
15564;DHT22;7883;52.554;13.364;2023-02-18T09:09:11;7.80;99.90
15564;DHT22;7883;52.554;13.364;2023-02-18T09:11:38;7.90;99.90
15564;DHT22;7883;52.554;13.364;2023-02-18T09:14:05;7.90;99.90
15564;DHT22;7883;52.554;13.364;2023-02-18T09:16:32;7.90;99.90
15564;DHT22;7883;52.554;13.364;2023-02-18T09:19:00;8.00;99.90
15564;DHT22;7883;52.554;13.364;2023-02-18T09:21:27;8.00;99.90
15564;DHT22;7883;52.554;13.364;2023-02-18T09:23:54;8.00;99.90
15564;DHT22;7883;52.554;13.364;2023-02-18T09:26:21;8.10;99.90
15564;DHT22;7883;52.554;13.364;2023-02-18T09:28:49;8.10;99.90
15564;DHT22;7883;52.554;13.364;2023-02-18T09:31:19;8.10;99.90
15564;DHT22;7883;52.554;13.364;2023-02-18T09:33:48;8.10;99.90
15564;DHT22;7883;52.554;13.364;2023-02-18T09:36:17;8.10;99.90
15564;DHT22;7883;52.554;13.364;2023-02-18T09:38:45;8.20;99.90
15564;DHT22;7883;52.554;13.364;2023-02-18T09:41:21;8.30;99.90
15564;DHT22;7883;52.554;13.364;2023-02-18T09:43:53;8.30;99.90
15564;DHT22;7883;52.554;13.364;2023-02-18T09:46:25;8.40;99.90
15564;DHT22;7883;52.554;13.364;2023-02-18T09:48:54;8.40;99.90
15564;DHT22;7883;52.554;13.364;2023-02-18T09:51:23;8.50;99.90
15564;DHT22;7883;52.554;13.364;2023-02-18T09:53:50;8.50;99.90
15564;DHT22;7883;52.554;13.364;2023-02-18T09:56:21;8.60;99.90
15564;DHT22;7883;52.554;13.364;2023-02-18T09:58:49;8.60;99.90
15564;DHT22;7883;52.554;13.364;2023-02-18T10:01:23;8.70;99.90
15564;DHT22;7883;52.554;13.364;2023-02-18T10:03:51;8.60;99.90
15564;DHT22;7883;52.554;13.364;2023-02-18T10:06:24;8.50;99.90
15564;DHT22;7883;52.554;13.364;2023-02-18T10:08:53;8.60;99.90
15564;DHT22;7883;52.554;13.364;2023-02-18T10:11:23;8.70;99.90
15564;DHT22;7883;52.554;13.364;2023-02-18T10:13:55;8.70;99.90
15564;DHT22;7883;52.554;13.364;2023-02-18T10:16:23;8.70;99.90
15564;DHT22;7883;52.554;13.364;2023-02-18T10:18:53;8.60;99.90
15564;DHT22;7883;52.554;13.364;2023-02-18T10:21:26;8.40;99.90
15564;DHT22;7883;52.554;13.364;2023-02-18T10:23:59;8.50;99.90
15564;DHT22;7883;52.554;13.364;2023-02-18T10:26:28;8.40;99.90
15564;DHT22;7883;52.554;13.364;2023-02-18T10:28:56;8.40;99.90
15564;DHT22;7883;52.554;13.364;2023-02-18T10:31:28;8.40;99.90
15564;DHT22;7883;52.554;13.364;2023-02-18T10:33:59;8.50;99.90
15564;DHT22;7883;52.554;13.364;2023-02-18T10:36:39;8.60;99.90
15564;DHT22;7883;52.554;13.364;2023-02-18T10:39:31;8.50;99.90
15564;DHT22;7883;52.554;13.364;2023-02-18T10:42:10;8.60;99.90
15564;DHT22;7883;52.554;13.364;2023-02-18T10:44:52;8.60;99.90
15564;DHT22;7883;52.554;13.364;2023-02-18T10:47:30;8.60;99.90
15564;DHT22;7883;52.554;13.364;2023-02-18T10:50:02;8.60;99.90
15564;DHT22;7883;52.554;13.364;2023-02-18T10:52:37;8.60;99.90
15564;DHT22;7883;52.554;13.364;2023-02-18T10:55:08;8.60;99.90
15564;DHT22;7883;52.554;13.364;2023-02-18T10:57:45;8.40;99.90
15564;DHT22;7883;52.554;13.364;2023-02-18T11:00:17;8.50;99.90
15564;DHT22;7883;52.554;13.364;2023-02-18T11:02:45;8.40;99.90
15564;DHT22;7883;52.554;13.364;2023-02-18T11:05:18;8.50;99.90
15564;DHT22;7883;52.554;13.364;2023-02-18T11:07:50;8.60;99.90
15564;DHT22;7883;52.554;13.364;2023-02-18T11:10:21;8.60;99.90
15564;DHT22;7883;52.554;13.364;2023-02-18T11:12:50;8.60;99.90
15564;DHT22;7883;52.554;13.364;2023-02-18T11:15:21;8.70;99.90
15564;DHT22;7883;52.554;13.364;2023-02-18T11:17:50;8.70;99.90
15564;DHT22;7883;52.554;13.364;2023-02-18T11:20:29;8.70;99.90
15564;DHT22;7883;52.554;13.364;2023-02-18T11:23:16;8.70;99.90
15564;DHT22;7883;52.554;13.364;2023-02-18T11:25:53;8.70;99.90
15564;DHT22;7883;52.554;13.364;2023-02-18T11:28:41;8.60;99.90
15564;DHT22;7883;52.554;13.364;2023-02-18T11:31:15;8.70;99.90
15564;DHT22;7883;52.554;13.364;2023-02-18T11:33:46;8.80;99.90
15564;DHT22;7883;52.554;13.364;2023-02-18T11:36:20;8.70;99.90
15564;DHT22;7883;52.554;13.364;2023-02-18T11:38:54;8.70;99.90
15564;DHT22;7883;52.554;13.364;2023-02-18T11:41:29;8.50;99.90
15564;DHT22;7883;52.554;13.364;2023-02-18T11:43:57;8.50;99.90
15564;DHT22;7883;52.554;13.364;2023-02-18T11:46:26;8.60;99.90
15564;DHT22;7883;52.554;13.364;2023-02-18T11:48:54;8.50;99.90
15564;DHT22;7883;52.554;13.364;2023-02-18T11:51:24;8.60;99.90
15564;DHT22;7883;52.554;13.364;2023-02-18T11:53:57;8.50;99.90
15564;DHT22;7883;52.554;13.364;2023-02-18T11:56:26;8.60;99.90
15564;DHT22;7883;52.554;13.364;2023-02-18T11:58:54;8.50;99.90
15564;DHT22;7883;52.554;13.364;2023-02-18T12:01:30;8.60;99.90
15564;DHT22;7883;52.554;13.364;2023-02-18T12:04:06;8.50;99.90
15564;DHT22;7883;52.554;13.364;2023-02-18T12:06:36;8.60;99.90
15564;DHT22;7883;52.554;13.364;2023-02-18T12:09:12;8.70;99.90
15564;DHT22;7883;52.554;13.364;2023-02-18T12:11:43;8.80;99.90
15564;DHT22;7883;52.554;13.364;2023-02-18T12:14:15;8.90;99.90
15564;DHT22;7883;52.554;13.364;2023-02-18T12:17:03;8.90;99.90
15564;DHT22;7883;52.554;13.364;2023-02-18T12:28:38;9.40;99.90
15564;DHT22;7883;52.554;13.364;2023-02-18T12:31:25;9.40;99.90
15564;DHT22;7883;52.554;13.364;2023-02-18T12:34:11;9.40;99.90
15564;DHT22;7883;52.554;13.364;2023-02-18T12:36:53;9.30;99.90
15564;DHT22;7883;52.554;13.364;2023-02-18T12:39:34;9.30;99.90
15564;DHT22;7883;52.554;13.364;2023-02-18T12:42:14;9.30;99.90
15564;DHT22;7883;52.554;13.364;2023-02-18T12:44:57;9.30;99.90
15564;DHT22;7883;52.554;13.364;2023-02-18T12:47:41;9.40;99.90
15564;DHT22;7883;52.554;13.364;2023-02-18T12:50:23;9.40;99.90
15564;DHT22;7883;52.554;13.364;2023-02-18T12:53:10;9.50;99.90
15564;DHT22;7883;52.554;13.364;2023-02-18T12:55:56;9.70;99.90
15564;DHT22;7883;52.554;13.364;2023-02-18T12:58:38;9.70;99.90
15564;DHT22;7883;52.554;13.364;2023-02-18T13:01:46;9.70;99.90
15564;DHT22;7883;52.554;13.364;2023-02-18T13:04:35;9.80;99.90
15564;DHT22;7883;52.554;13.364;2023-02-18T13:07:37;10.00;99.90
15564;DHT22;7883;52.554;13.364;2023-02-18T13:10:30;10.00;99.90
15564;DHT22;7883;52.554;13.364;2023-02-18T13:13:07;10.10;99.90
15564;DHT22;7883;52.554;13.364;2023-02-18T13:15:38;10.20;99.90
15564;DHT22;7883;52.554;13.364;2023-02-18T13:18:11;10.20;99.90
15564;DHT22;7883;52.554;13.364;2023-02-18T13:20:41;10.30;99.90
15564;DHT22;7883;52.554;13.364;2023-02-18T13:23:16;10.30;99.90
15564;DHT22;7883;52.554;13.364;2023-02-18T13:25:44;10.40;99.90
15564;DHT22;7883;52.554;13.364;2023-02-18T13:28:19;10.40;99.90
15564;DHT22;7883;52.554;13.364;2023-02-18T13:30:51;10.40;99.90
15564;DHT22;7883;52.554;13.364;2023-02-18T13:33:33;10.40;99.90
15564;DHT22;7883;52.554;13.364;2023-02-18T13:36:05;10.40;99.90
15564;DHT22;7883;52.554;13.364;2023-02-18T13:38:52;10.40;99.90
15564;DHT22;7883;52.554;13.364;2023-02-18T13:41:20;10.40;99.90
15564;DHT22;7883;52.554;13.364;2023-02-18T13:43:48;10.40;99.90
15564;DHT22;7883;52.554;13.364;2023-02-18T13:46:18;10.40;99.90
15564;DHT22;7883;52.554;13.364;2023-02-18T13:50:45;10.40;99.90
15564;DHT22;7883;52.554;13.364;2023-02-18T13:53:21;10.70;99.90
15564;DHT22;7883;52.554;13.364;2023-02-18T13:55:59;10.90;99.90
15564;DHT22;7883;52.554;13.364;2023-02-18T13:58:30;11.00;99.90
15564;DHT22;7883;52.554;13.364;2023-02-18T14:01:01;11.00;99.90
15564;DHT22;7883;52.554;13.364;2023-02-18T14:03:36;11.10;99.90
15564;DHT22;7883;52.554;13.364;2023-02-18T14:06:16;11.20;99.90
15564;DHT22;7883;52.554;13.364;2023-02-18T14:08:44;11.20;99.90
15564;DHT22;7883;52.554;13.364;2023-02-18T14:11:33;11.20;99.90
15564;DHT22;7883;52.554;13.364;2023-02-18T14:14:33;11.30;99.90
15564;DHT22;7883;52.554;13.364;2023-02-18T14:17:33;11.30;99.90
15564;DHT22;7883;52.554;13.364;2023-02-18T14:20:30;11.10;99.90
15564;DHT22;7883;52.554;13.364;2023-02-18T14:22:59;11.00;99.90
15564;DHT22;7883;52.554;13.364;2023-02-18T14:25:34;10.90;99.90
15564;DHT22;7883;52.554;13.364;2023-02-18T14:28:33;10.80;99.90
15564;DHT22;7883;52.554;13.364;2023-02-18T14:30:51;10.80;99.90
15564;DHT22;7883;52.554;13.364;2023-02-18T14:33:19;10.80;99.90
15564;DHT22;7883;52.554;13.364;2023-02-18T14:35:51;10.70;99.90
15564;DHT22;7883;52.554;13.364;2023-02-18T14:38:37;10.70;99.90
15564;DHT22;7883;52.554;13.364;2023-02-18T14:44:23;10.70;99.90
15564;DHT22;7883;52.554;13.364;2023-02-18T14:47:05;10.70;99.90
15564;DHT22;7883;52.554;13.364;2023-02-18T14:49:39;10.70;99.90
15564;DHT22;7883;52.554;13.364;2023-02-18T14:52:14;10.60;99.90
15564;DHT22;7883;52.554;13.364;2023-02-18T14:54:45;10.70;99.90
15564;DHT22;7883;52.554;13.364;2023-02-18T14:57:15;10.60;99.90
15564;DHT22;7883;52.554;13.364;2023-02-18T14:59:44;10.70;99.90
15564;DHT22;7883;52.554;13.364;2023-02-18T15:02:18;10.60;99.90
15564;DHT22;7883;52.554;13.364;2023-02-18T15:04:45;10.60;99.90
15564;DHT22;7883;52.554;13.364;2023-02-18T15:07:19;10.60;99.90
15564;DHT22;7883;52.554;13.364;2023-02-18T15:09:51;10.60;99.90
15564;DHT22;7883;52.554;13.364;2023-02-18T15:12:20;10.50;99.90
15564;DHT22;7883;52.554;13.364;2023-02-18T15:14:50;10.50;99.90
15564;DHT22;7883;52.554;13.364;2023-02-18T15:17:20;10.50;99.90
15564;DHT22;7883;52.554;13.364;2023-02-18T15:19:51;10.60;99.90
15564;DHT22;7883;52.554;13.364;2023-02-18T15:22:21;10.60;99.90
15564;DHT22;7883;52.554;13.364;2023-02-18T15:24:51;10.60;99.90
15564;DHT22;7883;52.554;13.364;2023-02-18T15:27:21;10.60;99.90
15564;DHT22;7883;52.554;13.364;2023-02-18T15:29:50;10.60;99.90
15564;DHT22;7883;52.554;13.364;2023-02-18T15:32:18;10.60;99.90
15564;DHT22;7883;52.554;13.364;2023-02-18T15:34:49;10.70;99.90
15564;DHT22;7883;52.554;13.364;2023-02-18T15:37:17;10.70;99.90
15564;DHT22;7883;52.554;13.364;2023-02-18T15:39:45;10.80;99.90
15564;DHT22;7883;52.554;13.364;2023-02-18T15:42:21;10.80;99.90
15564;DHT22;7883;52.554;13.364;2023-02-18T15:44:51;10.80;99.90
15564;DHT22;7883;52.554;13.364;2023-02-18T15:47:20;10.70;99.90
15564;DHT22;7883;52.554;13.364;2023-02-18T15:49:51;10.70;99.90
15564;DHT22;7883;52.554;13.364;2023-02-18T15:52:25;10.80;99.90
15564;DHT22;7883;52.554;13.364;2023-02-18T15:54:54;10.80;99.90
15564;DHT22;7883;52.554;13.364;2023-02-18T15:57:27;10.70;99.90
15564;DHT22;7883;52.554;13.364;2023-02-18T15:59:59;10.70;99.90
15564;DHT22;7883;52.554;13.364;2023-02-18T16:02:31;10.60;99.90
15564;DHT22;7883;52.554;13.364;2023-02-18T16:04:59;10.60;99.90
15564;DHT22;7883;52.554;13.364;2023-02-18T16:07:29;10.60;99.90
15564;DHT22;7883;52.554;13.364;2023-02-18T16:10:17;10.60;99.90
15564;DHT22;7883;52.554;13.364;2023-02-18T16:12:49;10.60;99.90
15564;DHT22;7883;52.554;13.364;2023-02-18T16:15:22;10.60;99.90
15564;DHT22;7883;52.554;13.364;2023-02-18T16:17:50;10.60;99.90
15564;DHT22;7883;52.554;13.364;2023-02-18T16:20:33;10.50;99.90
15564;DHT22;7883;52.554;13.364;2023-02-18T16:23:02;10.60;99.90
15564;DHT22;7883;52.554;13.364;2023-02-18T16:25:41;10.50;99.90
15564;DHT22;7883;52.554;13.364;2023-02-18T16:28:14;10.50;99.90
15564;DHT22;7883;52.554;13.364;2023-02-18T16:30:45;10.50;99.90